Time;durP1;ratioP1;P1;durP2;ratioP2;P2;SDS_P1;SDS_P2;PMS_P1;PMS_P2;Temp;Humidity;BMP_temperature;BMP_pressure;BME280_temperature;BME280_humidity;BME280_pressure;Samples;Min_cycle;Max_cycle;Signal;HPM_P1;HPM_P2
2023/03/11 00:02:22;;;;;;;;;;;;;;;;;;5002229;28;19936;-78
2023/03/11 00:05:09;;;;;;;;;;;;;;;;;;4996530;28;19940;-78
2023/03/11 00:07:55;;;;;;;;;;;;;;;;;;5002408;28;19918;-79
2023/03/11 00:10:42;;;;;;;;;;;;;;;;;;4994857;28;19922;-79
2023/03/11 00:13:28;;;;;;;;;;;;;;;;;;4996102;28;19917;-78
2023/03/11 00:16:15;;;;;;;;;;;;;;;;;;4994518;28;20327;-78
2023/03/11 00:19:01;;;;;;;;;;;;;;;;;;4997661;28;20423;-78
2023/03/11 00:21:48;;;;;;;;;;;;;;;;;;5000930;28;19929;-78
2023/03/11 00:24:34;;;;;;;;;;;;;;;;;;4996673;28;20270;-78
2023/03/11 00:27:21;;;;;;;;;;;;;;;;;;4998920;28;19913;-78
2023/03/11 00:30:07;;;;;;;;;;;;;;;;;;5013001;28;19922;-78
2023/03/11 00:32:54;;;;;;;;;;;;;;;;;;5019473;28;19932;-78
2023/03/11 00:35:40;;;;;;;;;;;;;;;;;;5018245;28;19921;-78
2023/03/11 00:38:27;;;;;;;;;;;;;;;;;;5018117;28;20447;-78
2023/03/11 00:41:13;;;;;;;;;;;;;;;;;;5023824;28;19940;-78
2023/03/11 00:44:00;;;;;;;;;;;;;;;;;;5015217;28;20417;-78
2023/03/11 00:46:46;;;;;;;;;;;;;;;;;;5021035;28;19928;-78
2023/03/11 00:49:33;;;;;;;;;;;;;;;;;;5023463;28;19921;-78
2023/03/11 00:52:19;;;;;;;;;;;;;;;;;;5018385;28;20675;-77
2023/03/11 00:55:06;;;;;;;;;;;;;;;;;;5018287;28;19921;-78
2023/03/11 00:57:52;;;;;;;;;;;;;;;;;;5017961;28;19928;-79
2023/03/11 01:00:39;;;;;;;;;;;;;;;;;;5021032;28;19928;-78
2023/03/11 01:03:25;;;;;;;;;;;;;;;;;;5022177;28;19940;-78
2023/03/11 01:06:12;;;;;;;;;;;;;;;;;;5018042;28;19925;-78
2023/03/11 01:08:58;;;;;;;;;;;;;;;;;;5016632;28;19917;-79
2023/03/11 01:11:45;;;;;;;;;;;;;;;;;;5020894;28;19917;-78
2023/03/11 01:14:31;;;;;;;;;;;;;;;;;;5015940;28;19918;-79
2023/03/11 01:17:23;;;;;;;;;;;;;;;;;;5006501;28;20349;-79
2023/03/11 01:20:09;;;;;;;;;;;;;;;;;;5015876;28;19918;-79
2023/03/11 01:22:56;;;;;;;;;;;;;;;;;;5017589;28;19943;-79
2023/03/11 01:25:42;;;;;;;;;;;;;;;;;;5013052;28;19925;-78
2023/03/11 01:28:29;;;;;;;;;;;;;;;;;;5015239;28;20432;-78
2023/03/11 01:31:15;;;;;;;;;;;;;;;;;;5007824;28;19922;-78
2023/03/11 01:34:02;;;;;;;;;;;;;;;;;;5008580;28;20384;-78
2023/03/11 01:36:48;;;;;;;;;;;;;;;;;;5013515;28;19917;-79
2023/03/11 01:39:35;;;;;;;;;;;;;;;;;;5012846;28;19917;-79
2023/03/11 01:42:21;;;;;;;;;;;;;;;;;;5008282;28;19925;-78
2023/03/11 01:45:08;;;;;;;;;;;;;;;;;;5016146;28;20299;-78
2023/03/11 01:47:54;;;;;;;;;;;;;;;;;;5010534;28;19921;-78
2023/03/11 01:50:40;;;;;;;;;;;;;;;;;;5015746;28;19921;-78
2023/03/11 01:53:27;;;;;;;;;;;;;;;;;;5013661;28;19917;-78
2023/03/11 01:56:13;;;;;;;;;;;;;;;;;;5015344;28;19924;-78
2023/03/11 01:59:00;;;;;;;;;;;;;;;;;;5015071;28;20634;-78
2023/03/11 02:01:46;;;;;;;;;;;;;;;;;;5008111;28;20028;-79
2023/03/11 02:04:33;;;;;;;;;;;;;;;;;;5016673;28;20296;-78
2023/03/11 02:07:20;;;;;;;;;;;;;;;;;;5015861;28;19917;-77
2023/03/11 02:10:06;;;;;;;;;;;;;;;;;;5014725;28;19925;-78
2023/03/11 02:12:53;;;;;;;;;;;;;;;;;;5017631;28;19928;-78
2023/03/11 02:15:39;;;;;;;;;;;;;;;;;;5007006;28;20361;-78
2023/03/11 02:18:26;;;;;;;;;;;;;;;;;;5014593;28;20365;-79
2023/03/11 02:21:12;;;;;;;;;;;;;;;;;;5018432;28;19928;-78
2023/03/11 02:23:59;;;;;;;;;;;;;;;;;;5019858;28;19921;-78
2023/03/11 02:26:45;;;;;;;;;;;;;;;;;;5008736;28;19925;-78
2023/03/11 02:29:32;;;;;;;;;;;;;;;;;;5013835;28;19924;-77
2023/03/11 02:32:18;;;;;;;;;;;;;;;;;;5017663;28;19918;-77
2023/03/11 02:35:04;;;;;;;;;;;;;;;;;;5014613;28;19914;-78
2023/03/11 02:37:51;;;;;;;;;;;;;;;;;;5014578;28;19924;-78
2023/03/11 02:40:37;;;;;;;;;;;;;;;;;;5015373;28;19932;-78
2023/03/11 02:43:24;;;;;;;;;;;;;;;;;;5012336;28;19928;-78
2023/03/11 02:46:10;;;;;;;;;;;;;;;;;;5011461;28;19944;-77
2023/03/11 02:48:57;;;;;;;;;;;;;;;;;;5008495;28;19924;-78
2023/03/11 02:51:43;;;;;;;;;;;;;;;;;;5022890;28;19921;-78
2023/03/11 02:54:30;;;;;;;;;;;;;;;;;;5022415;28;19924;-78
2023/03/11 02:57:16;;;;;;;;;;;;;;;;;;5020795;28;19917;-77
2023/03/11 03:00:09;;;;;;;;;;;;;;;;;;5024411;28;19925;-78
2023/03/11 03:02:56;;;;;;;;;;;;;;;;;;5017193;28;19929;-78
2023/03/11 03:05:42;;;;;;;;;;;;;;;;;;5011288;28;20714;-78
2023/03/11 03:08:29;;;;;;;;;;;;;;;;;;5019900;28;20380;-78
2023/03/11 03:11:15;;;;;;;;;;;;;;;;;;5018050;28;19918;-78
2023/03/11 03:14:02;;;;;;;;;;;;;;;;;;5021656;28;19920;-78
2023/03/11 03:16:48;;;;;;;;;;;;;;;;;;5020853;28;19924;-78
2023/03/11 03:19:35;;;;;;;;;;;;;;;;;;5010953;28;19918;-78
2023/03/11 03:22:24;;;;;;;;;;;;;;;;;;5014737;28;19929;-78
2023/03/11 03:25:10;;;;;;;;;;;;;;;;;;5020074;28;19914;-79
2023/03/11 03:27:57;;;;;;;;;;;;;;;;;;5015376;28;19917;-78
2023/03/11 03:30:43;;;;;;;;;;;;;;;;;;5017414;28;20251;-79
2023/03/11 03:33:30;;;;;;;;;;;;;;;;;;5014248;28;19913;-79
2023/03/11 03:36:17;;;;;;;;;;;;;;;;;;5019268;28;19917;-80
2023/03/11 03:39:03;;;;;;;;;;;;;;;;;;5018250;28;20351;-79
2023/03/11 03:41:50;;;;;;;;;;;;;;;;;;5016429;28;19992;-78
2023/03/11 03:44:36;;;;;;;;;;;;;;;;;;5014493;28;19943;-78
2023/03/11 03:47:22;;;;;;;;;;;;;;;;;;5012079;28;19917;-77
2023/03/11 03:50:09;;;;;;;;;;;;;;;;;;5019303;28;19945;-78
2023/03/11 03:52:55;;;;;;;;;;;;;;;;;;5010268;28;19917;-78
2023/03/11 03:55:42;;;;;;;;;;;;;;;;;;5017129;28;19914;-78
2023/03/11 03:58:28;;;;;;;;;;;;;;;;;;5019614;28;20381;-78
2023/03/11 04:01:15;;;;;;;;;;;;;;;;;;5020222;28;19929;-79
2023/03/11 04:04:01;;;;;;;;;;;;;;;;;;5019871;28;19913;-78
2023/03/11 04:06:48;;;;;;;;;;;;;;;;;;5018175;28;19917;-78
2023/03/11 04:09:34;;;;;;;;;;;;;;;;;;5012649;28;19928;-79
2023/03/11 04:12:21;;;;;;;;;;;;;;;;;;5018745;28;19924;-78
2023/03/11 04:15:08;;;;;;;;;;;;;;;;;;5013783;28;20356;-78
2023/03/11 04:17:54;;;;;;;;;;;;;;;;;;5017227;28;19923;-78
2023/03/11 04:20:41;;;;;;;;;;;;;;;;;;5016508;28;20762;-78
2023/03/11 04:23:27;;;;;;;;;;;;;;;;;;5012831;28;19917;-78
2023/03/11 04:26:14;;;;;;;;;;;;;;;;;;5015524;28;20289;-80
2023/03/11 04:29:02;;;;;;;;;;;;;;;;;;5015011;28;23989;-79
2023/03/11 04:31:48;;;;;;;;;;;;;;;;;;5013991;28;20289;-79
2023/03/11 04:34:35;;;;;;;;;;;;;;;;;;5013367;28;20292;-78
2023/03/11 04:37:21;;;;;;;;;;;;;;;;;;5008846;28;19921;-78
2023/03/11 04:40:09;;;;;;;;;;;;;;;;;;5016904;28;19921;-78
2023/03/11 04:42:56;;;;;;;;;;;;;;;;;;5004931;28;19925;-78
2023/03/11 04:45:42;;;;;;;;;;;;;;;;;;5009300;28;19917;-78
2023/03/11 04:48:29;;;;;;;;;;;;;;;;;;5017974;28;19917;-78
2023/03/11 04:51:15;;;;;;;;;;;;;;;;;;5018831;28;19925;-79
2023/03/11 04:54:01;;;;;;;;;;;;;;;;;;5011344;28;19928;-79
2023/03/11 04:56:48;;;;;;;;;;;;;;;;;;5014017;28;19922;-79
2023/03/11 04:59:34;;;;;;;;;;;;;;;;;;5017527;28;19940;-79
2023/03/11 05:02:21;;;;;;;;;;;;;;;;;;5015157;28;19928;-78
2023/03/11 05:05:08;;;;;;;;;;;;;;;;;;5012424;28;19946;-78
2023/03/11 05:07:54;;;;;;;;;;;;;;;;;;5020702;28;19928;-78
2023/03/11 05:10:41;;;;;;;;;;;;;;;;;;5011134;28;20400;-78
2023/03/11 05:13:28;;;;;;;;;;;;;;;;;;5019762;28;20385;-79
2023/03/11 05:16:15;;;;;;;;;;;;;;;;;;5020992;28;19928;-79
2023/03/11 05:19:29;;;;;;;;;;;;;;;;;;5020616;28;19927;-78
2023/03/11 05:22:08;;;;;;;;;;;;;;;;;;5014972;28;19929;-78
2023/03/11 05:24:54;;;;;;;;;;;;;;;;;;5009813;28;19929;-79
2023/03/11 05:27:40;;;;;;;;;;;;;;;;;;5019489;28;20633;-78
2023/03/11 05:30:27;;;;;;;;;;;;;;;;;;5010178;28;19921;-78
2023/03/11 05:33:13;;;;;;;;;;;;;;;;;;5010420;28;20400;-79
2023/03/11 05:36:00;;;;;;;;;;;;;;;;;;5020270;28;19917;-79
2023/03/11 05:38:46;;;;;;;;;;;;;;;;;;5020933;28;20315;-79
2023/03/11 05:41:33;;;;;;;;;;;;;;;;;;5009218;28;19932;-78
2023/03/11 05:44:19;;;;;;;;;;;;;;;;;;5013920;28;20550;-78
2023/03/11 05:47:06;;;;;;;;;;;;;;;;;;5019498;28;19922;-79
2023/03/11 05:49:52;;;;;;;;;;;;;;;;;;5018355;28;19939;-78
2023/03/11 05:52:39;;;;;;;;;;;;;;;;;;5014083;28;19925;-78
2023/03/11 05:55:25;;;;;;;;;;;;;;;;;;5019824;28;20398;-78
2023/03/11 05:58:12;;;;;;;;;;;;;;;;;;5017465;28;19940;-79
2023/03/11 06:00:59;;;;;;;;;;;;;;;;;;5014389;28;19930;-79
2023/03/11 06:03:45;;;;;;;;;;;;;;;;;;5011273;28;19925;-79
2023/03/11 06:06:32;;;;;;;;;;;;;;;;;;5015108;28;19913;-79
2023/03/11 06:09:18;;;;;;;;;;;;;;;;;;5013785;28;19917;-78
2023/03/11 06:12:05;;;;;;;;;;;;;;;;;;5010565;28;19921;-79
2023/03/11 06:14:51;;;;;;;;;;;;;;;;;;5010876;28;19913;-79
2023/03/11 06:17:37;;;;;;;;;;;;;;;;;;5011433;28;19929;-79
2023/03/11 06:20:24;;;;;;;;;;;;;;;;;;5010022;28;19917;-78
2023/03/11 06:23:10;;;;;;;;;;;;;;;;;;5014422;28;19964;-78
2023/03/11 06:25:57;;;;;;;;;;;;;;;;;;5018669;28;20333;-79
2023/03/11 06:28:43;;;;;;;;;;;;;;;;;;5013786;28;19928;-78
2023/03/11 06:31:30;;;;;;;;;;;;;;;;;;5018321;28;19917;-78
2023/03/11 06:34:16;;;;;;;;;;;;;;;;;;5012450;28;19939;-78
2023/03/11 06:37:03;;;;;;;;;;;;;;;;;;5017708;28;19931;-78
2023/03/11 06:39:49;;;;;;;;;;;;;;;;;;5010623;28;19936;-77
2023/03/11 06:42:36;;;;;;;;;;;;;;;;;;5012444;28;19929;-77
2023/03/11 06:45:22;;;;;;;;;;;;;;;;;;5018775;28;19941;-77
2023/03/11 06:48:09;;;;;;;;;;;;;;;;;;5015577;28;19913;-77
2023/03/11 06:50:55;;;;;;;;;;;;;;;;;;5019071;28;19924;-79
2023/03/11 06:53:42;;;;;;;;;;;;;;;;;;5015621;28;19921;-80
2023/03/11 06:56:28;;;;;;;;;;;;;;;;;;5013623;28;19932;-79
2023/03/11 06:59:15;;;;;;;;;;;;;;;;;;5014754;28;19929;-78
2023/03/11 07:02:02;;;;;;;;;;;;;;;;;;5018290;28;19931;-79
2023/03/11 07:04:49;;;;;;;;;;;;;;;;;;5017183;28;19928;-79
2023/03/11 07:07:35;;;;;;;;;;;;;;;;;;5013347;28;19925;-79
2023/03/11 07:10:22;;;;;;;;;;;;;;;;;;5014435;28;20281;-78
2023/03/11 07:13:08;;;;;;;;;;;;;;;;;;5012015;28;19935;-78
2023/03/11 07:15:55;;;;;;;;;;;;;;;;;;5019941;28;19925;-78
2023/03/11 07:18:41;;;;;;;;;;;;;;;;;;5014428;28;20452;-78
2023/03/11 07:21:28;;;;;;;;;;;;;;;;;;5012181;28;19922;-78
2023/03/11 07:24:14;;;;;;;;;;;;;;;;;;5014391;28;19932;-80
2023/03/11 07:27:01;;;;;;;;;;;;;;;;;;5014078;28;19921;-77
2023/03/11 07:29:47;;;;;;;;;;;;;;;;;;5009775;28;19922;-78
2023/03/11 07:32:34;;;;;;;;;;;;;;;;;;5013951;28;19935;-78
2023/03/11 07:35:20;;;;;;;;;;;;;;;;;;5016425;28;19925;-79
2023/03/11 07:38:07;;;;;;;;;;;;;;;;;;5016662;28;19929;-79
2023/03/11 07:40:53;;;;;;;;;;;;;;;;;;5019685;28;20419;-79
2023/03/11 07:43:40;;;;;;;;;;;;;;;;;;5014911;28;19936;-80
2023/03/11 07:46:26;;;;;;;;;;;;;;;;;;5018356;28;19929;-81
2023/03/11 07:49:13;;;;;;;;;;;;;;;;;;5016188;28;20289;-82
2023/03/11 07:51:59;;;;;;;;;;;;;;;;;;5023463;28;19920;-80
2023/03/11 07:54:46;;;;;;;;;;;;;;;;;;5022561;28;19928;-80
2023/03/11 07:57:32;;;;;;;;;;;;;;;;;;5009405;28;19948;-82
2023/03/11 08:00:19;;;;;;;;;;;;;;;;;;5012068;28;19929;-79
2023/03/11 08:03:05;;;;;;;;;;;;;;;;;;5018728;28;19940;-77
2023/03/11 08:05:52;;;;;;;;;;;;;;;;;;5015104;28;19920;-77
2023/03/11 08:08:39;;;;;;;;;;;;;;;;;;5009214;28;19929;-76
2023/03/11 08:11:25;;;;;;;;;;;;;;;;;;5010062;28;21386;-75
2023/03/11 08:14:12;;;;;;;;;;;;;;;;;;5018037;28;20300;-75
2023/03/11 08:16:58;;;;;;;;;;;;;;;;;;5010175;28;19921;-76
2023/03/11 08:19:45;;;;;;;;;;;;;;;;;;5011212;28;19921;-76
2023/03/11 08:22:31;;;;;;;;;;;;;;;;;;5010884;28;19932;-77
2023/03/11 08:25:17;;;;;;;;;;;;;;;;;;5007878;28;19922;-75
2023/03/11 08:28:06;;;;;;;;;;;;;;;;;;5013207;28;19922;-76
2023/03/11 08:30:52;;;;;;;;;;;;;;;;;;5013783;28;19925;-76
2023/03/11 08:33:39;;;;;;;;;;;;;;;;;;5012717;28;19932;-77
2023/03/11 08:36:25;;;;;;;;;;;;;;;;;;5013793;28;19917;-78
2023/03/11 08:39:12;;;;;;;;;;;;;;;;;;5012053;28;19918;-78
2023/03/11 08:41:59;;;;;;;;;;;;;;;;;;5010405;28;19936;-78
2023/03/11 08:44:45;;;;;;;;;;;;;;;;;;5006687;28;19921;-78
2023/03/11 08:47:32;;;;;;;;;;;;;;;;;;5015624;28;19920;-79
2023/03/11 08:50:18;;;;;;;;;;;;;;;;;;5013591;28;19921;-77
2023/03/11 08:53:05;;;;;;;;;;;;;;;;;;5010243;28;19921;-78
2023/03/11 08:55:51;;;;;;;;;;;;;;;;;;5009262;28;19921;-77
2023/03/11 08:58:38;;;;;;;;;;;;;;;;;;5008406;28;20312;-77
2023/03/11 09:01:24;;;;;;;;;;;;;;;;;;5014203;28;19921;-77
2023/03/11 09:04:11;;;;;;;;;;;;;;;;;;5013235;28;20669;-78
2023/03/11 09:06:58;;;;;;;;;;;;;;;;;;5014514;28;20344;-78
2023/03/11 09:09:44;;;;;;;;;;;;;;;;;;5009621;28;19928;-76
2023/03/11 09:12:31;;;;;;;;;;;;;;;;;;5013557;28;19931;-76
2023/03/11 09:15:17;;;;;;;;;;;;;;;;;;5011256;28;19921;-75
2023/03/11 09:18:03;;;;;;;;;;;;;;;;;;5016768;28;20459;-76
2023/03/11 09:20:50;;;;;;;;;;;;;;;;;;5014419;28;19916;-76
2023/03/11 09:23:36;;;;;;;;;;;;;;;;;;5014100;28;20420;-76
2023/03/11 09:26:23;;;;;;;;;;;;;;;;;;5013630;28;19927;-76
2023/03/11 09:29:10;;;;;;;;;;;;;;;;;;5011936;28;19927;-76
2023/03/11 09:31:56;;;;;;;;;;;;;;;;;;5016823;28;19947;-77
2023/03/11 09:34:43;;;;;;;;;;;;;;;;;;5013961;28;20827;-76
2023/03/11 09:37:29;;;;;;;;;;;;;;;;;;5009369;28;19928;-78
2023/03/11 09:40:16;;;;;;;;;;;;;;;;;;5014857;28;19921;-77
2023/03/11 09:43:02;;;;;;;;;;;;;;;;;;5011197;28;19940;-76
2023/03/11 09:45:49;;;;;;;;;;;;;;;;;;5013521;28;19925;-77
2023/03/11 09:48:35;;;;;;;;;;;;;;;;;;5011327;28;19918;-76
2023/03/11 09:51:22;;;;;;;;;;;;;;;;;;5011252;28;19928;-77
2023/03/11 09:54:08;;;;;;;;;;;;;;;;;;5015392;28;20387;-76
2023/03/11 09:56:55;;;;;;;;;;;;;;;;;;5017199;28;19931;-76
2023/03/11 09:59:44;;;;;;;;;;;;;;;;;;5012399;28;19936;-76
2023/03/11 10:02:31;;;;;;;;;;;;;;;;;;5013611;28;19929;-75
2023/03/11 10:05:18;;;;;;;;;;;;;;;;;;5019205;28;19924;-76
2023/03/11 10:08:09;;;;;;;;;;;;;;;;;;5014518;28;20605;-75
2023/03/11 10:10:55;;;;;;;;;;;;;;;;;;5012167;28;19921;-76
2023/03/11 10:13:41;;;;;;;;;;;;;;;;;;5013875;28;19925;-77
2023/03/11 10:16:28;;;;;;;;;;;;;;;;;;5010303;28;19925;-77
2023/03/11 10:19:15;;;;;;;;;;;;;;;;;;5016662;28;19925;-76
2023/03/11 10:22:02;;;;;;;;;;;;;;;;;;5011943;28;19925;-77
2023/03/11 10:24:48;;;;;;;;;;;;;;;;;;5019005;28;19935;-76
2023/03/11 10:27:36;;;;;;;;;;;;;;;;;;5018089;28;19921;-76
2023/03/11 10:30:23;;;;;;;;;;;;;;;;;;5018289;28;19921;-76
2023/03/11 10:33:09;;;;;;;;;;;;;;;;;;5016480;28;19917;-77
2023/03/11 10:35:56;;;;;;;;;;;;;;;;;;5018495;28;19928;-76
2023/03/11 10:38:45;;;;;;;;;;;;;;;;;;5017449;28;19929;-75
2023/03/11 10:41:31;;;;;;;;;;;;;;;;;;5013676;28;19917;-77
2023/03/11 10:44:18;;;;;;;;;;;;;;;;;;5015849;28;19925;-75
2023/03/11 10:47:04;;;;;;;;;;;;;;;;;;5020028;28;20652;-77
2023/03/11 10:49:51;;;;;;;;;;;;;;;;;;5016519;28;19925;-77
2023/03/11 10:52:38;;;;;;;;;;;;;;;;;;5014341;28;21221;-77
2023/03/11 10:55:24;;;;;;;;;;;;;;;;;;5016255;28;19936;-76
2023/03/11 10:58:10;;;;;;;;;;;;;;;;;;5020161;28;19930;-77
2023/03/11 11:00:57;;;;;;;;;;;;;;;;;;5015254;28;19921;-77
2023/03/11 11:03:43;;;;;;;;;;;;;;;;;;5016074;28;20366;-77
2023/03/11 11:06:30;;;;;;;;;;;;;;;;;;5015702;28;19917;-77
2023/03/11 11:09:18;;;;;;;;;;;;;;;;;;5013272;28;19917;-77
2023/03/11 11:12:04;;;;;;;;;;;;;;;;;;5019331;28;19921;-77
2023/03/11 11:14:51;;;;;;;;;;;;;;;;;;5017712;28;19921;-77
2023/03/11 11:17:39;;;;;;;;;;;;;;;;;;5018514;28;19939;-77
2023/03/11 11:20:25;;;;;;;;;;;;;;;;;;5020268;28;20551;-76
2023/03/11 11:23:12;;;;;;;;;;;;;;;;;;5013814;28;19937;-76
2023/03/11 11:25:58;;;;;;;;;;;;;;;;;;5019455;28;19920;-76
2023/03/11 11:28:45;;;;;;;;;;;;;;;;;;5018399;28;19922;-76
2023/03/11 11:31:31;;;;;;;;;;;;;;;;;;5019997;28;20478;-76
2023/03/11 11:34:18;;;;;;;;;;;;;;;;;;5019994;28;19917;-74
2023/03/11 11:37:04;;;;;;;;;;;;;;;;;;5018528;28;19921;-76
2023/03/11 11:39:51;;;;;;;;;;;;;;;;;;5019717;28;19918;-76
2023/03/11 11:42:37;;;;;;;;;;;;;;;;;;5019536;28;20686;-75
2023/03/11 11:45:24;;;;;;;;;;;;;;;;;;5018878;28;20000;-75
2023/03/11 11:48:11;;;;;;;;;;;;;;;;;;5023750;28;19917;-75
2023/03/11 11:50:57;;;;;;;;;;;;;;;;;;5017794;28;19990;-76
2023/03/11 11:53:45;;;;;;;;;;;;;;;;;;5014360;28;19928;-76
2023/03/11 11:56:31;;;;;;;;;;;;;;;;;;5019606;28;19928;-76
2023/03/11 11:59:17;;;;;;;;;;;;;;;;;;5020258;28;20203;-76
2023/03/11 12:02:04;;;;;;;;;;;;;;;;;;5017592;28;19933;-76
2023/03/11 12:04:50;;;;;;;;;;;;;;;;;;5016811;28;19924;-76
2023/03/11 12:07:37;;;;;;;;;;;;;;;;;;5016901;28;19921;-76
2023/03/11 12:10:24;;;;;;;;;;;;;;;;;;5019186;28;19928;-75
2023/03/11 12:13:10;;;;;;;;;;;;;;;;;;5018610;28;19921;-76
2023/03/11 12:15:56;;;;;;;;;;;;;;;;;;5014480;28;19927;-76
2023/03/11 12:18:43;;;;;;;;;;;;;;;;;;5018270;28;20702;-78
2023/03/11 12:21:29;;;;;;;;;;;;;;;;;;5012131;28;19925;-77
2023/03/11 12:24:16;;;;;;;;;;;;;;;;;;5017793;28;19948;-76
2023/03/11 12:27:02;;;;;;;;;;;;;;;;;;5014007;28;19921;-78
2023/03/11 12:29:49;;;;;;;;;;;;;;;;;;5017188;28;19921;-78
2023/03/11 12:32:35;;;;;;;;;;;;;;;;;;5018141;28;20408;-78
2023/03/11 12:35:22;;;;;;;;;;;;;;;;;;5012101;28;19932;-78
2023/03/11 12:38:08;;;;;;;;;;;;;;;;;;5018683;28;19928;-78
2023/03/11 12:40:56;;;;;;;;;;;;;;;;;;5016566;28;19917;-78
2023/03/11 12:43:42;;;;;;;;;;;;;;;;;;5015155;28;19948;-77
2023/03/11 12:46:28;;;;;;;;;;;;;;;;;;5018863;28;19930;-78
2023/03/11 12:49:15;;;;;;;;;;;;;;;;;;5016168;28;19921;-78
2023/03/11 12:52:01;;;;;;;;;;;;;;;;;;5017009;28;20375;-78
2023/03/11 12:54:48;;;;;;;;;;;;;;;;;;5015437;28;19921;-78
2023/03/11 12:57:34;;;;;;;;;;;;;;;;;;5017430;28;20620;-78
2023/03/11 13:00:21;;;;;;;;;;;;;;;;;;5017495;28;19929;-78
2023/03/11 13:03:08;;;;;;;;;;;;;;;;;;5016635;28;20388;-78
2023/03/11 13:05:54;;;;;;;;;;;;;;;;;;5013178;28;20400;-78
2023/03/11 13:08:41;;;;;;;;;;;;;;;;;;5018620;28;19917;-78
2023/03/11 13:11:27;;;;;;;;;;;;;;;;;;5020051;28;19936;-78
2023/03/11 13:14:15;;;;;;;;;;;;;;;;;;5011385;28;19924;-78
2023/03/11 13:17:01;;;;;;;;;;;;;;;;;;5011917;28;20494;-78
2023/03/11 13:19:48;;;;;;;;;;;;;;;;;;5014022;28;19925;-77
2023/03/11 13:22:34;;;;;;;;;;;;;;;;;;5009576;28;19925;-77
2023/03/11 13:25:21;;;;;;;;;;;;;;;;;;5018362;28;20692;-77
2023/03/11 13:28:07;;;;;;;;;;;;;;;;;;5018455;28;19951;-78
2023/03/11 13:30:54;;;;;;;;;;;;;;;;;;5015640;28;19917;-78
2023/03/11 13:33:40;;;;;;;;;;;;;;;;;;5015249;28;19921;-78
2023/03/11 13:36:27;;;;;;;;;;;;;;;;;;5021915;28;19932;-77
2023/03/11 13:39:13;;;;;;;;;;;;;;;;;;5018892;28;19925;-78
2023/03/11 13:42:00;;;;;;;;;;;;;;;;;;5014020;28;20348;-78
2023/03/11 13:44:46;;;;;;;;;;;;;;;;;;5014963;28;19947;-77
2023/03/11 13:47:32;;;;;;;;;;;;;;;;;;5007623;28;20365;-75
2023/03/11 13:50:19;;;;;;;;;;;;;;;;;;5007506;28;19925;-76
2023/03/11 13:53:05;;;;;;;;;;;;;;;;;;5008344;28;19925;-76
2023/03/11 13:55:52;;;;;;;;;;;;;;;;;;5021463;28;19932;-76
2023/03/11 13:58:38;;;;;;;;;;;;;;;;;;5013113;28;19934;-77
2023/03/11 14:01:25;;;;;;;;;;;;;;;;;;5016294;28;20659;-77
2023/03/11 14:04:11;;;;;;;;;;;;;;;;;;5014762;28;19932;-77
2023/03/11 14:06:58;;;;;;;;;;;;;;;;;;5017403;28;19947;-77
2023/03/11 14:09:44;;;;;;;;;;;;;;;;;;5016794;28;19924;-77
2023/03/11 14:12:31;;;;;;;;;;;;;;;;;;5015481;28;19929;-77
2023/03/11 14:15:17;;;;;;;;;;;;;;;;;;5012350;28;20375;-77
2023/03/11 14:18:04;;;;;;;;;;;;;;;;;;5013543;28;19925;-76
2023/03/11 14:20:50;;;;;;;;;;;;;;;;;;5011173;28;19922;-76
2023/03/11 14:23:37;;;;;;;;;;;;;;;;;;5010725;28;20035;-75
2023/03/11 14:26:23;;;;;;;;;;;;;;;;;;5010420;28;19922;-75
2023/03/11 14:29:10;;;;;;;;;;;;;;;;;;5015215;28;19933;-76
2023/03/11 14:31:56;;;;;;;;;;;;;;;;;;5013318;28;19917;-75
2023/03/11 14:34:44;;;;;;;;;;;;;;;;;;5013110;28;19932;-76
2023/03/11 14:37:31;;;;;;;;;;;;;;;;;;5014477;28;20360;-75
2023/03/11 14:40:17;;;;;;;;;;;;;;;;;;5016140;28;19933;-76
2023/03/11 14:43:04;;;;;;;;;;;;;;;;;;5012374;28;19936;-76
2023/03/11 14:45:50;;;;;;;;;;;;;;;;;;5017052;28;19917;-76
2023/03/11 14:48:37;;;;;;;;;;;;;;;;;;5016469;28;20511;-76
2023/03/11 14:51:24;;;;;;;;;;;;;;;;;;5013672;28;19923;-76
2023/03/11 14:54:10;;;;;;;;;;;;;;;;;;5015299;28;19923;-76
2023/03/11 14:56:56;;;;;;;;;;;;;;;;;;5017295;28;20565;-76
2023/03/11 14:59:43;;;;;;;;;;;;;;;;;;5017574;28;19940;-76
2023/03/11 15:02:29;;;;;;;;;;;;;;;;;;5018034;28;19951;-76
2023/03/11 15:05:16;;;;;;;;;;;;;;;;;;5018175;28;20571;-76
2023/03/11 15:08:02;;;;;;;;;;;;;;;;;;5019590;28;19921;-76
2023/03/11 15:10:49;;;;;;;;;;;;;;;;;;5016612;28;19921;-76
2023/03/11 15:13:35;;;;;;;;;;;;;;;;;;5014771;28;19933;-76
2023/03/11 15:16:22;;;;;;;;;;;;;;;;;;5020785;28;19921;-76
2023/03/11 15:19:08;;;;;;;;;;;;;;;;;;5021732;28;20110;-77
2023/03/11 15:21:57;;;;;;;;;;;;;;;;;;5024661;28;19923;-78
2023/03/11 15:24:43;;;;;;;;;;;;;;;;;;5017012;28;20402;-76
2023/03/11 15:27:30;;;;;;;;;;;;;;;;;;5015895;28;19958;-76
2023/03/11 15:30:16;;;;;;;;;;;;;;;;;;5019977;28;19927;-76
2023/03/11 15:33:03;;;;;;;;;;;;;;;;;;5017091;28;19924;-76
2023/03/11 15:35:49;;;;;;;;;;;;;;;;;;5020587;28;20630;-76
2023/03/11 15:38:36;;;;;;;;;;;;;;;;;;5022990;28;19921;-76
2023/03/11 15:41:22;;;;;;;;;;;;;;;;;;5017626;28;19927;-75
2023/03/11 15:44:09;;;;;;;;;;;;;;;;;;5019638;28;20282;-76
2023/03/11 15:46:58;;;;;;;;;;;;;;;;;;5022245;28;19932;-75
2023/03/11 15:49:44;;;;;;;;;;;;;;;;;;5017581;28;19932;-76
2023/03/11 15:52:31;;;;;;;;;;;;;;;;;;5009568;28;20075;-77
2023/03/11 15:55:20;;;;;;;;;;;;;;;;;;5023032;28;19921;-77
2023/03/11 15:58:06;;;;;;;;;;;;;;;;;;5015422;28;19984;-77
2023/03/11 16:00:54;;;;;;;;;;;;;;;;;;5016134;28;20108;-77
2023/03/11 16:03:41;;;;;;;;;;;;;;;;;;5015396;28;19921;-78
2023/03/11 16:06:27;;;;;;;;;;;;;;;;;;5017945;28;19932;-77
2023/03/11 16:09:14;;;;;;;;;;;;;;;;;;5020707;28;19928;-78
2023/03/11 16:12:00;;;;;;;;;;;;;;;;;;5015323;28;19982;-77
2023/03/11 16:14:47;;;;;;;;;;;;;;;;;;5015662;28;19921;-77
2023/03/11 16:17:33;;;;;;;;;;;;;;;;;;5014443;28;19917;-75
2023/03/11 16:20:20;;;;;;;;;;;;;;;;;;5020204;28;19942;-75
2023/03/11 16:23:06;;;;;;;;;;;;;;;;;;5018352;28;20498;-76
2023/03/11 16:25:53;;;;;;;;;;;;;;;;;;5020839;28;19927;-76
2023/03/11 16:28:39;;;;;;;;;;;;;;;;;;5020554;28;19925;-77
2023/03/11 16:31:27;;;;;;;;;;;;;;;;;;5020118;28;19925;-77
2023/03/11 16:34:13;;;;;;;;;;;;;;;;;;5020841;28;19924;-76
2023/03/11 16:36:59;;;;;;;;;;;;;;;;;;5021645;28;19921;-77
2023/03/11 16:39:47;;;;;;;;;;;;;;;;;;5019374;28;20343;-76
2023/03/11 16:42:33;;;;;;;;;;;;;;;;;;5016052;28;19928;-77
2023/03/11 16:45:20;;;;;;;;;;;;;;;;;;5012859;28;19922;-78
2023/03/11 16:48:06;;;;;;;;;;;;;;;;;;5013839;28;19932;-82
2023/03/11 16:50:53;;;;;;;;;;;;;;;;;;5014180;28;19932;-76
2023/03/11 16:53:39;;;;;;;;;;;;;;;;;;5014659;28;19917;-74
2023/03/11 16:56:26;;;;;;;;;;;;;;;;;;5010784;28;19925;-74
2023/03/11 16:59:12;;;;;;;;;;;;;;;;;;5015299;28;19933;-75
2023/03/11 17:01:59;;;;;;;;;;;;;;;;;;5021556;28;20003;-75
2023/03/11 17:04:45;;;;;;;;;;;;;;;;;;5019564;28;19925;-74
2023/03/11 17:07:32;;;;;;;;;;;;;;;;;;5012942;28;20277;-75
2023/03/11 17:10:27;;;;;;;;;;;;;;;;;;5015903;28;19927;-74
2023/03/11 17:13:14;;;;;;;;;;;;;;;;;;5019325;28;19917;-80
2023/03/11 17:16:02;;;;;;;;;;;;;;;;;;5016090;28;19987;-82
2023/03/11 17:18:48;;;;;;;;;;;;;;;;;;5015847;28;19921;-82
2023/03/11 17:21:35;;;;;;;;;;;;;;;;;;5017245;28;19940;-81
2023/03/11 17:24:01;;;;;;;;;;;;;;;;;;5018710;28;19925;-82
2023/03/11 17:26:30;;;;;;;;;;;;;;;;;;5019855;28;19956;-83
2023/03/11 17:28:57;;;;;;;;;;;;;;;;;;5016768;28;19965;-81
2023/03/11 17:31:23;;;;;;;;;;;;;;;;;;5015778;28;19925;-81
2023/03/11 17:33:50;;;;;;;;;;;;;;;;;;5019684;28;19957;-81
2023/03/11 17:36:17;;;;;;;;;;;;;;;;;;5019359;28;19928;-81
2023/03/11 17:38:44;;;;;;;;;;;;;;;;;;5018456;28;19921;-80
2023/03/11 17:41:11;;;;;;;;;;;;;;;;;;5018542;28;19928;-81
2023/03/11 17:43:37;;;;;;;;;;;;;;;;;;5014177;28;19964;-81
2023/03/11 17:46:04;;;;;;;;;;;;;;;;;;5020342;28;19924;-81
2023/03/11 17:48:30;;;;;;;;;;;;;;;;;;5017940;28;19921;-81
2023/03/11 17:50:57;;;;;;;;;;;;;;;;;;5019520;28;19925;-81
2023/03/11 17:53:23;;;;;;;;;;;;;;;;;;5021761;28;19948;-81
2023/03/11 17:55:50;;;;;;;;;;;;;;;;;;5020600;28;20459;-81
2023/03/11 17:58:16;;;;;;;;;;;;;;;;;;5020470;28;19933;-81
2023/03/11 18:00:48;;;;;;;;;;;;;;;;;;5020530;28;19921;-83
2023/03/11 18:03:14;;;;;;;;;;;;;;;;;;5018657;28;19933;-81
2023/03/11 18:05:41;;;;;;;;;;;;;;;;;;5021182;28;19921;-81
2023/03/11 18:08:08;;;;;;;;;;;;;;;;;;5019240;28;19919;-81
2023/03/11 18:10:34;;;;;;;;;;;;;;;;;;5019389;28;19928;-81
2023/03/11 18:13:01;;;;;;;;;;;;;;;;;;5019243;28;19952;-81
2023/03/11 18:15:27;;;;;;;;;;;;;;;;;;5016030;28;19928;-81
2023/03/11 18:17:56;;;;;;;;;;;;;;;;;;5017709;28;20040;-81
2023/03/11 18:20:23;;;;;;;;;;;;;;;;;;5015382;28;20014;-80
2023/03/11 18:22:50;;;;;;;;;;;;;;;;;;5021393;28;19926;-81
2023/03/11 18:25:16;;;;;;;;;;;;;;;;;;5024156;28;19925;-80
2023/03/11 18:27:43;;;;;;;;;;;;;;;;;;5023263;28;19929;-80
2023/03/11 18:30:10;;;;;;;;;;;;;;;;;;5024334;28;19914;-81
2023/03/11 18:32:36;;;;;;;;;;;;;;;;;;5021541;28;19968;-81
2023/03/11 18:35:02;;;;;;;;;;;;;;;;;;5023896;28;19924;-80
2023/03/11 18:37:29;;;;;;;;;;;;;;;;;;5021785;28;19921;-79
2023/03/11 18:39:57;;;;;;;;;;;;;;;;;;5025116;28;19968;-80
2023/03/11 18:42:24;;;;;;;;;;;;;;;;;;5024890;28;19929;-79
2023/03/11 18:44:51;;;;;;;;;;;;;;;;;;5024199;28;19929;-80
2023/03/11 18:47:17;;;;;;;;;;;;;;;;;;5026394;28;19917;-80